Time;durP1;ratioP1;P1;durP2;ratioP2;P2;SDS_P1;SDS_P2;PMS_P1;PMS_P2;Temp;Humidity;BMP_temperature;BMP_pressure;BME280_temperature;BME280_humidity;BME280_pressure;Samples;Min_cycle;Max_cycle;Signal;HPM_P1;HPM_P2
2022/02/24 00:01:29;;;;;;;6.50;2.60;;;;;;;21.82;36.81;101427.97;5042351;28;20037;-70
2022/02/24 00:03:55;;;;;;;6.13;2.42;;;;;;;21.82;36.66;101423.47;5042334;28;20409;-70
2022/02/24 00:06:22;;;;;;;5.68;2.45;;;;;;;21.77;36.86;101411.78;5041479;28;20044;-70
2022/02/24 00:08:47;;;;;;;5.40;2.65;;;;;;;21.73;36.75;101399.88;5040532;28;20147;-70
2022/02/24 00:11:13;;;;;;;3.63;2.15;;;;;;;21.72;37.03;101399.03;5039189;28;20047;-70
2022/02/24 00:13:38;;;;;;;4.15;2.30;;;;;;;21.73;37.09;101411.31;5043989;28;20033;-70
2022/02/24 00:16:04;;;;;;;5.88;2.10;;;;;;;21.65;36.79;101403.41;5042144;28;20049;-70
2022/02/24 00:18:30;;;;;;;5.50;2.47;;;;;;;21.68;36.98;101397.75;5044491;28;20134;-70
2022/02/24 00:20:55;;;;;;;6.28;2.75;;;;;;;21.62;36.94;101388.69;5036312;28;20070;-70
2022/02/24 00:23:22;;;;;;;6.75;2.58;;;;;;;21.62;36.90;101398.47;5044828;28;20043;-70
2022/02/24 00:25:48;;;;;;;5.22;2.38;;;;;;;21.60;36.84;101405.78;5040430;28;20499;-70
2022/02/24 00:28:13;;;;;;;5.85;2.53;;;;;;;21.60;36.78;101400.47;5042500;28;20057;-70
2022/02/24 00:30:39;;;;;;;7.38;2.33;;;;;;;21.57;36.83;101396.34;5040811;28;20056;-70
2022/02/24 00:33:06;;;;;;;5.25;2.25;;;;;;;21.53;37.00;101394.22;5041067;28;20044;-70
2022/02/24 00:35:31;;;;;;;6.53;2.20;;;;;;;21.55;36.73;101392.22;5045177;28;20043;-70
2022/02/24 00:37:57;;;;;;;6.63;2.20;;;;;;;21.45;37.10;101386.34;5038194;28;20728;-70
2022/02/24 00:40:23;;;;;;;5.60;2.40;;;;;;;21.49;37.04;101384.97;5042036;28;20442;-70
2022/02/24 00:42:48;;;;;;;4.25;1.95;;;;;;;21.48;36.85;101389.44;5037385;28;20406;-70
2022/02/24 00:45:14;;;;;;;6.85;2.30;;;;;;;21.48;36.91;101385.97;5041291;28;20044;-70
2022/02/24 00:47:39;;;;;;;5.10;2.05;;;;;;;21.41;37.23;101373.44;5043095;28;20094;-70
2022/02/24 00:50:06;;;;;;;6.10;2.05;;;;;;;21.40;36.81;101377.09;5042396;28;20660;-70
2022/02/24 00:52:31;;;;;;;4.13;2.08;;;;;;;21.42;36.89;101366.31;5043418;28;20029;-70
2022/02/24 00:54:57;;;;;;;4.28;2.35;;;;;;;21.41;37.04;101375.28;5040148;28;20717;-70
2022/02/24 00:57:22;;;;;;;5.95;2.50;;;;;;;21.41;36.98;101367.31;5043829;28;20663;-70
2022/02/24 00:59:49;;;;;;;8.07;2.55;;;;;;;21.41;36.81;101368.16;5038171;28;20036;-70
2022/02/24 01:02:16;;;;;;;7.50;2.50;;;;;;;21.35;37.01;101360.06;5042204;28;20041;-70
2022/02/24 01:04:42;;;;;;;5.70;2.30;;;;;;;21.31;36.85;101340.22;5038043;28;20395;-70
2022/02/24 01:07:07;;;;;;;4.65;2.00;;;;;;;21.34;36.90;101346.00;5045493;28;20036;-70
2022/02/24 01:09:34;;;;;;;4.60;2.40;;;;;;;21.35;36.79;101338.88;5042205;28;20107;-70
2022/02/24 01:12:00;;;;;;;5.93;2.25;;;;;;;21.32;36.94;101341.88;5040533;28;20029;-70
2022/02/24 01:14:25;;;;;;;4.97;2.58;;;;;;;21.26;37.06;101327.53;5042376;28;20123;-70
2022/02/24 01:16:51;;;;;;;5.68;2.72;;;;;;;21.29;37.10;101327.16;5039358;28;20483;-70
2022/02/24 01:19:16;;;;;;;5.40;2.33;;;;;;;21.29;36.82;101327.16;5041812;28;20040;-70
2022/02/24 01:21:42;;;;;;;4.32;1.90;;;;;;;21.27;37.03;101323.06;5034782;28;20067;-70
2022/02/24 01:24:07;;;;;;;4.68;2.20;;;;;;;21.26;36.84;101314.28;5040241;28;20052;-70
2022/02/24 01:26:33;;;;;;;5.32;2.40;;;;;;;21.23;37.05;101314.59;5037215;28;20032;-70
2022/02/24 01:28:59;;;;;;;5.80;2.30;;;;;;;21.24;36.95;101302.19;5039915;28;20108;-70
2022/02/24 01:31:25;;;;;;;4.20;2.20;;;;;;;21.21;36.84;101287.47;5043291;28;20056;-70
2022/02/24 01:33:50;;;;;;;4.68;2.20;;;;;;;21.20;36.82;101285.84;5040141;28;20503;-70
2022/02/24 01:36:16;;;;;;;3.58;1.92;;;;;;;21.21;36.91;101297.25;5043497;28;20082;-70
2022/02/24 01:38:41;;;;;;;4.28;1.80;;;;;;;21.17;37.00;101280.88;5035429;28;20037;-70
2022/02/24 01:41:07;;;;;;;3.30;1.90;;;;;;;21.19;36.85;101278.91;5044262;28;20162;-70
2022/02/24 01:43:33;;;;;;;3.72;1.67;;;;;;;21.17;36.92;101288.00;5038915;28;20110;-70
2022/02/24 01:45:59;;;;;;;5.93;2.08;;;;;;;21.13;37.03;101300.78;5045058;28;20052;-70
2022/02/24 01:48:25;;;;;;;5.15;2.10;;;;;;;21.16;36.73;101296.94;5040081;28;20426;-70
2022/02/24 01:50:50;;;;;;;4.53;2.30;;;;;;;21.08;36.96;101280.13;5039378;28;20494;-70
2022/02/24 01:53:16;;;;;;;7.43;2.30;;;;;;;21.12;36.94;101285.88;5036530;28;20033;-70
2022/02/24 01:55:42;;;;;;;5.00;2.08;;;;;;;21.09;36.96;101273.00;5039251;28;20671;-70
2022/02/24 01:58:08;;;;;;;5.38;1.92;;;;;;;21.05;37.00;101259.28;5045850;28;20044;-70
2022/02/24 02:00:34;;;;;;;6.85;2.30;;;;;;;21.07;36.89;101270.53;5037528;28;20509;-70
2022/02/24 02:02:59;;;;;;;4.85;1.95;;;;;;;21.09;36.99;101265.88;5044727;28;20052;-70
2022/02/24 02:05:25;;;;;;;4.35;2.30;;;;;;;21.07;36.84;101253.81;5044420;28;20040;-70
2022/02/24 02:07:50;;;;;;;4.70;2.28;;;;;;;21.05;36.98;101261.13;5037055;28;20098;-70
2022/02/24 02:10:16;;;;;;;3.63;1.85;;;;;;;21.01;36.93;101259.84;5040764;28;20098;-70
2022/02/24 02:12:46;;;;;;;6.80;2.20;;;;;;;21.05;36.95;101259.28;5037724;28;20038;-70
2022/02/24 02:15:12;;;;;;;3.25;2.15;;;;;;;20.99;36.75;101264.47;5043990;28;20037;-70
2022/02/24 02:17:37;;;;;;;4.35;2.30;;;;;;;21.02;36.93;101264.13;5041075;28;20055;-70
2022/02/24 02:20:03;;;;;;;4.95;1.98;;;;;;;21.00;37.02;101258.97;5043145;28;20033;-70
2022/02/24 02:22:29;;;;;;;6.30;2.30;;;;;;;21.01;36.94;101251.91;5033943;28;20098;-70
2022/02/24 02:24:59;;;;;;;5.95;2.28;;;;;;;21.01;36.82;101251.91;5039664;28;20044;-70
2022/02/24 02:27:25;;;;;;;6.82;2.28;;;;;;;20.94;37.12;101246.47;5039217;28;20443;-70
2022/02/24 02:29:50;;;;;;;6.78;2.17;;;;;;;20.94;36.89;101240.34;5041792;28;20105;-70
2022/02/24 02:32:16;;;;;;;4.63;2.20;;;;;;;20.99;36.89;101243.28;5040881;28;20403;-70
2022/02/24 02:34:41;;;;;;;4.03;1.90;;;;;;;20.95;36.89;101234.03;5038032;28;20768;-70
2022/02/24 02:37:07;;;;;;;4.72;2.30;;;;;;;20.94;36.89;101227.09;5043782;28;20041;-70
2022/02/24 02:39:32;;;;;;;4.43;2.15;;;;;;;20.93;37.04;101223.63;5035766;28;20101;-70
2022/02/24 02:41:58;;;;;;;4.97;2.03;;;;;;;20.87;37.02;101221.72;5040454;28;20060;-70
2022/02/24 02:44:23;;;;;;;5.68;2.30;;;;;;;20.91;37.01;101219.53;5036791;28;20098;-70
2022/02/24 02:46:49;;;;;;;4.70;2.50;;;;;;;20.90;36.81;101215.22;5041608;28;20098;-70
2022/02/24 02:49:14;;;;;;;6.20;2.00;;;;;;;20.89;36.95;101213.59;5040598;28;20111;-70
2022/02/24 02:51:40;;;;;;;3.83;1.80;;;;;;;20.90;36.99;101202.00;5040024;28;20072;-70
2022/02/24 02:54:06;;;;;;;2.97;1.92;;;;;;;20.89;36.91;101198.53;5036490;28;20392;-70
2022/02/24 02:56:32;;;;;;;4.25;1.95;;;;;;;20.87;36.91;101194.41;5041291;28;20109;-70
2022/02/24 02:58:57;;;;;;;4.88;2.50;;;;;;;20.88;36.90;101193.41;5040457;28;20588;-70
2022/02/24 03:01:23;;;;;;;4.07;2.05;;;;;;;20.82;37.04;101192.28;5037412;28;20082;-70
2022/02/24 03:03:48;;;;;;;5.28;2.40;;;;;;;20.84;37.04;101189.47;5039284;28;20045;-70
2022/02/24 03:06:14;;;;;;;4.82;1.90;;;;;;;20.83;37.03;101188.66;5035364;28;20044;-70
2022/02/24 03:08:39;;;;;;;6.00;1.90;;;;;;;20.80;36.94;101179.22;5039410;28;20477;-70
2022/02/24 03:11:05;;;;;;;5.13;2.10;;;;;;;20.79;37.01;101174.94;5038193;28;20776;-71
2022/02/24 03:13:30;;;;;;;4.18;2.17;;;;;;;20.80;36.90;101173.94;5039066;28;20098;-70
2022/02/24 03:15:56;;;;;;;5.55;2.10;;;;;;;20.79;37.04;101168.81;5041882;28;20443;-70
2022/02/24 03:18:22;;;;;;;5.03;2.05;;;;;;;20.76;37.01;101166.53;5038482;28;20656;-70
2022/02/24 03:20:48;;;;;;;3.28;1.90;;;;;;;20.80;36.85;101173.09;5037490;28;20036;-69
2022/02/24 03:23:13;;;;;;;4.72;2.05;;;;;;;20.79;36.85;101160.88;5035412;28;20045;-70
2022/02/24 03:25:39;;;;;;;3.15;1.75;;;;;;;20.77;36.94;101160.22;5043269;28;20040;-70
2022/02/24 03:28:05;;;;;;;4.03;1.83;;;;;;;20.73;37.03;101153.66;5037297;28;20068;-70
2022/02/24 03:30:32;;;;;;;3.65;1.98;;;;;;;20.76;36.91;101150.66;5040178;28;20690;-69
2022/02/24 03:32:59;;;;;;;4.07;2.00;;;;;;;20.74;37.04;101152.66;5040107;28;20025;-70
2022/02/24 03:35:25;;;;;;;3.80;1.80;;;;;;;20.75;36.91;101149.00;5037127;28;20041;-70
2022/02/24 03:37:50;;;;;;;6.35;1.95;;;;;;;20.73;36.78;101137.78;5041502;28;20040;-70
2022/02/24 03:40:17;;;;;;;4.50;1.90;;;;;;;20.72;36.91;101141.44;5035516;28;20052;-70
2022/02/24 03:42:44;;;;;;;4.00;2.22;;;;;;;20.72;36.91;101138.78;5072542;28;20041;-70
2022/02/24 03:45:11;;;;;;;4.90;2.25;;;;;;;20.68;36.78;101140.16;5039115;28;20048;-70
2022/02/24 03:47:36;;;;;;;5.35;2.15;;;;;;;20.66;37.08;101145.63;5043668;28;20391;-70
2022/02/24 03:50:04;;;;;;;4.80;2.35;;;;;;;20.59;37.09;101130.59;5034344;28;20072;-70
2022/02/24 03:52:29;;;;;;;4.38;1.80;;;;;;;20.68;36.96;101140.16;5040598;28;20646;-70
2022/02/24 03:54:55;;;;;;;2.75;1.90;;;;;;;20.66;36.89;101135.03;5032924;28;20045;-70
2022/02/24 03:57:20;;;;;;;3.50;1.80;;;;;;;20.64;36.91;101130.91;5039721;28;20071;-70
2022/02/24 03:59:46;;;;;;;5.90;2.33;;;;;;;20.60;36.90;101121.66;5042379;28;20037;-70
2022/02/24 04:02:13;;;;;;;3.55;2.10;;;;;;;20.65;36.91;101127.28;5031615;28;20029;-70
2022/02/24 04:04:41;;;;;;;4.20;1.83;;;;;;;20.61;37.11;101128.59;5036083;28;20039;-70
2022/02/24 04:07:06;;;;;;;4.95;2.15;;;;;;;20.60;37.04;101121.66;5032843;28;20510;-70
2022/02/24 04:09:32;;;;;;;4.90;2.20;;;;;;;20.63;37.13;101111.53;5039282;28;20029;-70
2022/02/24 04:11:58;;;;;;;5.30;1.70;;;;;;;20.60;36.97;101106.63;5032380;28;20029;-70
2022/02/24 04:14:23;;;;;;;3.92;1.92;;;;;;;20.58;36.79;101113.91;5044135;28;20049;-70
2022/02/24 04:16:50;;;;;;;4.05;2.22;;;;;;;20.60;36.95;101111.09;5037822;28;20129;-70
2022/02/24 04:19:16;;;;;;;5.13;2.20;;;;;;;20.59;37.01;101109.44;5042695;28;20107;-70
2022/02/24 04:21:42;;;;;;;2.70;1.83;;;;;;;20.58;36.84;101110.44;5048280;28;20163;-70
2022/02/24 04:24:08;;;;;;;4.65;2.33;;;;;;;20.54;37.03;101106.50;5041352;28;20033;-70
2022/02/24 04:26:34;;;;;;;3.72;1.80;;;;;;;20.58;36.98;101107.81;5045394;28;20071;-70
2022/02/24 04:29:00;;;;;;;4.03;1.60;;;;;;;20.54;36.96;101102.03;5037973;28;20178;-70
2022/02/24 04:31:26;;;;;;;3.05;1.50;;;;;;;20.54;37.11;101098.56;5043542;28;20094;-70
2022/02/24 04:33:52;;;;;;;4.70;1.83;;;;;;;20.51;36.98;101092.66;5035302;28;20037;-70
2022/02/24 04:36:17;;;;;;;6.15;2.38;;;;;;;20.55;37.00;101087.00;5048115;28;20040;-70
2022/02/24 04:38:43;;;;;;;3.13;1.80;;;;;;;20.44;37.10;101083.75;5038940;28;20076;-70
2022/02/24 04:41:08;;;;;;;4.05;1.60;;;;;;;20.50;37.02;101088.34;5040460;28;20033;-70
2022/02/24 04:43:34;;;;;;;3.90;1.90;;;;;;;20.49;37.05;101086.72;5042265;28;20048;-69
2022/02/24 04:46:00;;;;;;;4.63;1.75;;;;;;;20.50;36.98;101096.28;5038937;28;20033;-70
2022/02/24 04:48:26;;;;;;;5.00;1.90;;;;;;;20.49;36.99;101094.66;5040962;28;20036;-70
2022/02/24 04:50:52;;;;;;;4.40;1.80;;;;;;;20.49;36.93;101081.41;5038099;28;20102;-70
2022/02/24 04:53:18;;;;;;;5.72;1.98;;;;;;;20.46;36.87;101073.81;5042146;28;20052;-70
2022/02/24 04:55:43;;;;;;;4.03;1.77;;;;;;;20.45;36.88;101066.06;5045984;28;20032;-70
2022/02/24 04:58:09;;;;;;;3.88;2.05;;;;;;;20.32;37.08;101044.66;5046199;28;20060;-70
2022/02/24 05:00:35;;;;;;;3.90;1.70;;;;;;;20.40;37.03;101052.53;5042525;28;20052;-70
2022/02/24 05:03:00;;;;;;;5.25;1.80;;;;;;;20.39;37.08;101057.00;5041162;28;20697;-70
2022/02/24 05:05:26;;;;;;;3.28;1.92;;;;;;;20.40;37.12;101056.00;5042756;28;20506;-70
2022/02/24 05:07:52;;;;;;;3.58;1.83;;;;;;;20.42;37.07;101058.50;5038874;28;20036;-70
2022/02/24 05:10:17;;;;;;;4.45;1.95;;;;;;;20.42;37.08;101053.19;5048747;28;20043;-70
2022/02/24 05:12:44;;;;;;;4.43;1.95;;;;;;;20.39;37.20;101043.78;5037391;28;20037;-70
2022/02/24 05:15:10;;;;;;;4.97;1.70;;;;;;;20.39;37.12;101045.59;5044266;28;20071;-70
2022/02/24 05:17:39;;;;;;;4.38;1.92;;;;;;;20.39;37.13;101040.31;5040437;28;20040;-70
2022/02/24 05:20:09;;;;;;;3.40;2.00;;;;;;;20.36;37.16;101035.38;5041842;28;20933;-70
2022/02/24 05:22:41;;;;;;;6.43;1.95;;;;;;;20.36;37.22;101028.25;5045679;28;20033;-70
2022/02/24 05:25:12;;;;;;;4.05;1.70;;;;;;;20.32;37.21;101026.16;5040790;28;20113;-70
2022/02/24 05:27:38;;;;;;;4.65;1.88;;;;;;;20.33;37.22;101020.69;5047435;28;20051;-70
2022/02/24 05:30:05;;;;;;;2.38;1.55;;;;;;;20.35;37.15;101015.22;5037858;28;20574;-70
2022/02/24 05:32:31;;;;;;;3.30;1.90;;;;;;;20.33;37.10;101012.75;5041018;28;20505;-70
2022/02/24 05:34:57;;;;;;;7.15;1.83;;;;;;;20.31;37.18;101011.28;5039900;28;20049;-70
2022/02/24 05:37:26;;;;;;;5.28;2.20;;;;;;;20.33;37.13;101001.34;5047094;28;20048;-70
2022/02/24 05:39:53;;;;;;;3.40;1.70;;;;;;;20.32;37.19;100997.88;5040209;28;20435;-70
2022/02/24 05:42:18;;;;;;;5.00;2.13;;;;;;;20.30;37.26;100991.13;5023575;28;20075;-70
2022/02/24 05:44:44;;;;;;;4.97;1.98;;;;;;;20.36;37.17;100979.84;5039417;28;20037;-70
2022/02/24 05:47:10;;;;;;;5.35;1.98;;;;;;;20.33;37.19;100983.66;5037524;28;20037;-70
2022/02/24 05:49:35;;;;;;;3.65;1.90;;;;;;;20.33;37.18;100988.13;5041731;28;20067;-70
2022/02/24 05:52:01;;;;;;;3.35;1.65;;;;;;;20.30;37.25;100977.91;5038198;28;20064;-70
2022/02/24 05:54:26;;;;;;;7.32;1.90;;;;;;;20.32;37.27;100978.56;5041161;28;20029;-70
2022/02/24 05:56:52;;;;;;;7.47;2.25;;;;;;;20.34;37.33;100973.91;5036808;28;20045;-70
2022/02/24 05:59:17;;;;;;;4.53;2.00;;;;;;;20.36;37.28;100970.06;5039767;28;20040;-70
2022/02/24 06:01:43;;;;;;;4.68;1.70;;;;;;;20.59;36.88;100982.44;5040892;28;20037;-70
2022/02/24 06:04:08;;;;;;;3.08;1.73;;;;;;;21.08;36.37;100978.25;5041899;28;20028;-70
2022/02/24 06:06:34;;;;;;;5.03;1.83;;;;;;;21.67;35.36;100972.84;5045569;28;20051;-70
2022/02/24 06:08:59;;;;;;;3.50;1.77;;;;;;;21.94;34.99;100959.88;5036554;28;20048;-70
2022/02/24 06:11:25;;;;;;;3.05;1.60;;;;;;;22.14;34.52;100962.72;5046326;28;20036;-70
2022/02/24 06:13:50;;;;;;;4.65;1.73;;;;;;;22.21;34.72;100955.63;5038499;28;20069;-70
2022/02/24 06:16:16;;;;;;;3.13;1.70;;;;;;;22.27;34.53;100944.28;5041950;28;20044;-70
2022/02/24 06:18:42;;;;;;;2.55;1.50;;;;;;;22.36;34.31;100936.97;5043321;28;20163;-70
2022/02/24 06:21:07;;;;;;;4.05;1.73;;;;;;;22.45;34.29;100943.78;5036630;28;20042;-70
2022/02/24 06:23:33;;;;;;;3.28;1.60;;;;;;;22.33;34.60;100946.13;5042445;28;20040;-70
2022/02/24 06:25:59;;;;;;;3.65;1.90;;;;;;;22.23;34.88;100937.69;5037114;28;20091;-70
2022/02/24 06:28:24;;;;;;;3.42;2.03;;;;;;;22.12;34.75;100941.69;5046388;28;21235;-70
2022/02/24 06:30:50;;;;;;;3.80;2.03;;;;;;;22.09;34.92;100931.47;5039118;28;20028;-70
2022/02/24 06:33:16;;;;;;;3.90;1.80;;;;;;;22.10;35.10;100927.00;5037144;28;20033;-70
2022/02/24 06:35:41;;;;;;;3.40;1.60;;;;;;;22.43;35.04;100933.34;5039990;28;20106;-70
2022/02/24 06:38:07;;;;;;;3.80;1.67;;;;;;;22.68;34.50;100935.53;5036332;28;20044;-70
2022/02/24 06:40:32;;;;;;;3.97;1.60;;;;;;;22.81;34.21;100939.09;5037001;28;20036;-70
2022/02/24 06:42:59;;;;;;;3.05;1.67;;;;;;;23.03;33.97;100936.34;5033877;28;20037;-70
2022/02/24 06:45:25;;;;;;;3.85;1.80;;;;;;;23.07;33.59;100940.25;5038438;28;20041;-70
2022/02/24 06:47:50;;;;;;;3.03;1.83;;;;;;;23.04;33.69;100941.47;5036080;28;20690;-70
2022/02/24 06:50:16;;;;;;;4.32;1.75;;;;;;;22.96;33.93;100936.31;5042595;28;20094;-70
2022/02/24 06:52:42;;;;;;;5.18;1.90;;;;;;;22.86;33.93;100931.38;5043123;28;20600;-70
2022/02/24 06:55:09;;;;;;;2.70;1.55;;;;;;;22.67;34.64;100925.94;5036755;28;22019;-69
2022/02/24 06:57:52;;;;;;;2.72;1.50;;;;;;;22.54;34.58;100927.50;5042821;28;20536;-69
2022/02/24 07:00:19;;;;;;;3.55;1.70;;;;;;;22.41;34.61;100913.31;5034605;28;20082;-70
2022/02/24 07:02:45;;;;;;;6.40;1.90;;;;;;;22.30;35.11;100922.66;5042519;28;20048;-70
2022/02/24 07:05:11;;;;;;;2.78;2.03;;;;;;;22.19;35.31;100915.22;5037129;28;20045;-70
2022/02/24 07:07:37;;;;;;;3.78;1.95;;;;;;;22.05;35.32;100902.88;5042857;28;20055;-70
2022/02/24 07:10:08;;;;;;;3.95;1.75;;;;;;;21.94;35.84;100906.84;5036952;28;20044;-70
2022/02/24 07:12:33;;;;;;;2.92;1.63;;;;;;;21.87;35.90;100906.78;5038631;28;20061;-70
2022/02/24 07:14:59;;;;;;;3.47;1.58;;;;;;;21.93;35.62;100898.06;5034485;28;20025;-70
2022/02/24 07:17:24;;;;;;;5.28;2.72;;;;;;;22.24;35.18;100895.03;5040438;28;20435;-70
2022/02/24 07:19:50;;;;;;;4.35;2.15;;;;;;;22.55;34.59;100893.81;5037843;28;20731;-70
2022/02/24 07:22:15;;;;;;;2.97;1.70;;;;;;;22.82;34.48;100882.34;5039865;28;20083;-70
2022/02/24 07:24:41;;;;;;;3.97;1.75;;;;;;;22.92;34.28;100880.13;5041457;28;20045;-70
2022/02/24 07:27:06;;;;;;;4.78;1.90;;;;;;;22.86;34.14;100878.28;5036066;28;20037;-70
2022/02/24 07:29:32;;;;;;;3.10;2.20;;;;;;;22.73;34.18;100880.84;5038262;28;20052;-69
2022/02/24 07:31:57;;;;;;;5.45;1.92;;;;;;;22.65;34.67;100875.72;5035342;28;20036;-70
2022/02/24 07:34:23;;;;;;;5.15;1.80;;;;;;;22.55;34.53;100880.53;5063939;28;20042;-70
2022/02/24 07:36:50;;;;;;;3.17;1.70;;;;;;;22.40;35.08;100867.41;5032435;28;20395;-70
2022/02/24 07:39:17;;;;;;;3.67;1.77;;;;;;;22.27;35.27;100862.84;5041699;28;20103;-69
2022/02/24 07:41:43;;;;;;;5.43;2.50;;;;;;;22.15;35.59;100868.88;5037028;28;20641;-69
2022/02/24 07:44:08;;;;;;;3.88;1.80;;;;;;;21.98;35.61;100870.97;5043997;28;20065;-69
2022/02/24 07:46:35;;;;;;;5.07;1.98;;;;;;;22.00;35.95;100869.75;5040157;28;20459;-70
2022/02/24 07:49:01;;;;;;;3.38;2.00;;;;;;;21.89;36.24;100864.97;5035088;28;20033;-70
2022/02/24 07:51:26;;;;;;;3.47;1.98;;;;;;;21.87;36.36;100866.19;5036418;28;21976;-70
2022/02/24 07:53:52;;;;;;;3.15;1.90;;;;;;;21.83;36.10;100859.63;5034508;28;20052;-70
2022/02/24 07:56:18;;;;;;;5.72;2.15;;;;;;;21.78;36.05;100848.78;5046124;28;20102;-70
2022/02/24 07:58:44;;;;;;;4.40;2.20;;;;;;;21.75;36.28;100852.66;5038899;28;20029;-70
2022/02/24 08:01:10;;;;;;;4.18;1.92;;;;;;;21.75;36.49;100849.19;5048788;28;20044;-70
2022/02/24 08:03:35;;;;;;;4.78;2.53;;;;;;;21.71;36.27;100838.94;5041526;28;20028;-70
2022/02/24 08:06:01;;;;;;;3.97;1.77;;;;;;;21.63;36.32;100833.78;5042192;28;20069;-70
2022/02/24 08:08:26;;;;;;;6.15;2.55;;;;;;;21.71;36.23;100838.13;5040898;28;20112;-70
2022/02/24 08:10:53;;;;;;;3.92;1.90;;;;;;;21.67;36.15;100839.53;5041509;28;20041;-70
2022/02/24 08:13:18;;;;;;;4.20;1.80;;;;;;;21.62;36.50;100813.59;5040182;28;20484;-70
2022/02/24 08:15:44;;;;;;;7.22;2.15;;;;;;;21.69;36.39;100814.47;5038613;28;20048;-70
2022/02/24 08:18:10;;;;;;;3.85;1.92;;;;;;;21.68;36.23;100822.59;5044283;28;20112;-70
2022/02/24 08:20:35;;;;;;;2.75;1.70;;;;;;;21.68;36.45;100820.78;5039477;28;20086;-71
2022/02/24 08:23:03;;;;;;;6.38;2.15;;;;;;;21.57;36.48;100813.38;5045659;28;20070;-70
2022/02/24 08:25:30;;;;;;;4.15;2.10;;;;;;;21.67;36.32;100813.84;5036467;28;20071;-70
2022/02/24 08:27:56;;;;;;;3.15;1.85;;;;;;;21.68;36.12;100810.19;5044749;28;20045;-70
2022/02/24 08:30:23;;;;;;;5.60;2.05;;;;;;;21.63;36.37;100809.94;5041633;28;20040;-70
2022/02/24 08:32:51;;;;;;;5.35;2.03;;;;;;;21.64;36.32;100806.28;5041126;28;20068;-70
2022/02/24 08:35:18;;;;;;;3.80;1.90;;;;;;;21.69;36.23;100787.16;5044966;28;20568;-70
2022/02/24 08:37:47;;;;;;;3.30;2.10;;;;;;;21.86;35.78;100790.31;5043812;28;20112;-70
2022/02/24 08:40:15;;;;;;;3.77;2.40;;;;;;;22.19;35.16;100790.56;5053388;28;20044;-70
2022/02/24 08:42:41;;;;;;;4.07;2.20;;;;;;;22.37;35.12;100780.25;5040334;28;20063;-70
2022/02/24 08:45:08;;;;;;;6.35;2.13;;;;;;;22.28;35.43;100773.47;5044740;28;20040;-70
2022/02/24 08:47:34;;;;;;;5.28;2.22;;;;;;;22.19;35.33;100762.19;5049998;28;20036;-70
2022/02/24 08:50:03;;;;;;;4.53;2.20;;;;;;;22.14;35.83;100761.16;5046804;28;20584;-71
2022/02/24 08:52:29;;;;;;;3.80;2.25;;;;;;;22.06;35.81;100761.31;5039902;28;20534;-71
2022/02/24 08:54:54;;;;;;;7.53;2.05;;;;;;;22.02;35.51;100761.66;5024174;28;20036;-71
2022/02/24 08:57:20;;;;;;;4.70;1.98;;;;;;;22.00;35.64;100746.97;5008289;28;20466;-71
2022/02/24 08:59:47;;;;;;;4.30;2.35;;;;;;;21.97;35.36;100744.72;5037138;28;20066;-71
2022/02/24 09:02:12;;;;;;;6.18;2.00;;;;;;;21.93;35.74;100739.00;5008990;28;21811;-71
2022/02/24 09:04:38;;;;;;;5.57;2.50;;;;;;;21.82;35.96;100734.22;5035460;28;20039;-71
2022/02/24 09:07:04;;;;;;;6.70;2.38;;;;;;;21.77;35.88;100731.34;5023001;28;20115;-70
2022/02/24 09:09:29;;;;;;;5.55;1.85;;;;;;;21.84;35.77;100742.81;5036920;28;20052;-71
2022/02/24 09:11:55;;;;;;;4.88;2.00;;;;;;;21.76;36.03;100724.41;5037059;28;20045;-70
2022/02/24 09:14:21;;;;;;;7.15;2.45;;;;;;;21.84;36.15;100729.56;5039823;28;20584;-70
2022/02/24 09:16:46;;;;;;;4.70;2.00;;;;;;;21.87;36.12;100718.56;5043658;28;20779;-70
2022/02/24 09:19:12;;;;;;;5.13;1.98;;;;;;;21.87;36.01;100707.13;5040948;28;20051;-70
2022/02/24 09:21:38;;;;;;;4.28;2.15;;;;;;;21.88;35.85;100703.47;5036487;28;20033;-70
2022/02/24 09:24:07;;;;;;;3.92;2.17;;;;;;;21.86;35.72;100700.19;5039658;28;20619;-70
2022/02/24 09:26:33;;;;;;;3.83;1.98;;;;;;;21.85;36.06;100696.72;5038873;28;20036;-70
2022/02/24 09:29:00;;;;;;;5.05;2.38;;;;;;;21.83;35.86;100706.72;5037883;28;20864;-70
2022/02/24 09:31:27;;;;;;;5.35;2.25;;;;;;;21.74;36.09;100691.19;5039800;28;20041;-70
2022/02/24 09:33:53;;;;;;;5.45;2.20;;;;;;;21.77;35.95;100696.91;5041483;28;20891;-70
2022/02/24 09:36:18;;;;;;;7.30;2.65;;;;;;;21.75;35.91;100676.91;5041052;28;20503;-70
2022/02/24 09:38:44;;;;;;;5.43;2.33;;;;;;;21.75;35.83;100664.47;5037463;28;20025;-71
2022/02/24 09:41:11;;;;;;;6.95;2.22;;;;;;;21.78;35.94;100660.59;5041422;28;20033;-70
2022/02/24 09:43:37;;;;;;;4.85;2.03;;;;;;;21.77;36.00;100651.03;5035053;28;20033;-70
2022/02/24 09:46:08;;;;;;;4.25;2.30;;;;;;;21.72;35.85;100641.00;5057115;28;20098;-70
2022/02/24 09:48:36;;;;;;;6.22;2.15;;;;;;;21.74;35.83;100646.94;5034540;28;20032;-70
2022/02/24 09:51:05;;;;;;;4.50;2.08;;;;;;;21.69;36.00;100638.72;5040088;28;20039;-70
2022/02/24 09:53:32;;;;;;;5.75;2.20;;;;;;;21.76;35.72;100652.03;5032886;28;20052;-70
2022/02/24 09:55:59;;;;;;;4.13;2.40;;;;;;;21.86;35.53;100648.00;5041117;28;20251;-70
2022/02/24 09:58:25;;;;;;;3.75;1.90;;;;;;;22.01;35.32;100637.25;5069203;28;20064;-70
2022/02/24 10:00:51;;;;;;;4.40;1.98;;;;;;;22.06;35.12;100634.03;5038045;28;20186;-70
2022/02/24 10:03:23;;;;;;;3.53;2.10;;;;;;;22.16;35.07;100624.69;5039384;28;20045;-71
2022/02/24 10:05:48;;;;;;;5.50;2.17;;;;;;;22.19;34.96;100613.66;5037704;28;20099;-71
2022/02/24 10:08:14;;;;;;;5.43;2.08;;;;;;;22.15;35.19;100599.19;5038860;28;20037;-71
2022/02/24 10:10:42;;;;;;;5.32;2.00;;;;;;;22.09;35.43;100575.31;5023700;28;20045;-71
2022/02/24 10:13:11;;;;;;;4.38;2.10;;;;;;;22.09;35.41;100570.00;5043884;28;20021;-70
2022/02/24 10:15:42;;;;;;;4.40;2.40;;;;;;;22.06;35.58;100567.72;5032853;28;20124;-70
2022/02/24 10:18:16;;;;;;;6.97;2.42;;;;;;;22.01;35.30;100561.19;5069179;28;20072;-70
2022/02/24 10:20:50;;;;;;;3.28;1.98;;;;;;;21.97;35.38;100562.59;5032724;28;20329;-70
2022/02/24 10:23:17;;;;;;;6.60;2.20;;;;;;;21.90;35.60;100539.72;5041302;28;20509;-70
2022/02/24 10:25:52;;;;;;;5.00;2.15;;;;;;;21.92;35.80;100538.53;5035799;28;20048;-70
2022/02/24 10:28:39;;;;;;;8.07;2.95;;;;;;;21.88;35.59;100537.28;5039535;28;20115;-70
2022/02/24 10:31:08;;;;;;;5.32;2.40;;;;;;;21.89;35.59;100551.34;5034146;28;20079;-70
2022/02/24 10:33:38;;;;;;;4.22;2.03;;;;;;;21.90;35.45;100535.28;5038791;28;20095;-69
2022/02/24 10:36:33;;;;;;;5.90;1.90;;;;;;;22.05;35.46;100535.09;5038750;28;20387;-70
2022/02/24 10:39:11;;;;;;;3.55;2.20;;;;;;;22.21;34.88;100541.88;5034365;28;20049;-69
2022/02/24 10:41:45;;;;;;;5.53;2.50;;;;;;;22.42;34.60;100520.44;5039475;28;20029;-69
2022/02/24 10:44:15;;;;;;;4.40;2.03;;;;;;;22.42;34.43;100523.09;5034416;28;20590;-69
2022/02/24 10:46:43;;;;;;;5.82;2.10;;;;;;;22.38;34.65;100507.81;5043755;28;20517;-68
2022/02/24 10:49:10;;;;;;;5.93;2.20;;;;;;;22.30;34.94;100501.69;5033151;28;20410;-72
2022/02/24 10:51:36;;;;;;;5.68;1.95;;;;;;;22.27;34.68;100503.94;5044114;28;20787;-73
2022/02/24 10:54:07;;;;;;;4.22;2.10;;;;;;;22.20;35.05;100498.59;5032760;28;20098;-73
2022/02/24 10:56:34;;;;;;;6.45;2.05;;;;;;;22.18;34.84;100479.44;5043112;28;20795;-73
2022/02/24 10:59:00;;;;;;;3.60;1.90;;;;;;;22.15;35.02;100473.72;5033512;28;20655;-74
2022/02/24 11:01:28;;;;;;;5.75;2.35;;;;;;;22.10;35.35;100466.38;5035946;28;20048;-73
2022/02/24 11:04:05;;;;;;;3.75;1.92;;;;;;;22.08;35.05;100456.97;5040336;28;20082;-74
2022/02/24 11:06:36;;;;;;;5.05;1.95;;;;;;;22.02;35.23;100463.88;5040442;28;20043;-74
2022/02/24 11:09:05;;;;;;;3.58;1.95;;;;;;;21.97;35.35;100467.16;5039134;28;20143;-74
2022/02/24 11:11:33;;;;;;;6.18;2.10;;;;;;;21.95;35.49;100444.53;5033854;28;20659;-73
2022/02/24 11:14:00;;;;;;;4.60;2.20;;;;;;;21.94;35.55;100454.31;5038628;28;20041;-75
2022/02/24 11:16:27;;;;;;;4.07;2.10;;;;;;;21.95;35.55;100453.28;5037784;28;20053;-73
2022/02/24 11:18:54;;;;;;;4.30;2.10;;;;;;;21.98;35.35;100450.22;5044034;28;20037;-75
2022/02/24 11:21:21;;;;;;;6.15;2.00;;;;;;;21.97;36.00;100442.47;5036127;28;20052;-73